Time;durP1;ratioP1;P1;durP2;ratioP2;P2;SDS_P1;SDS_P2;PMS_P1;PMS_P2;Temp;Humidity;BMP_temperature;BMP_pressure;BME280_temperature;BME280_humidity;BME280_pressure;Samples;Min_cycle;Max_cycle;Signal;HPM_P1;HPM_P2
2023/04/16 00:01:02;;;;;;;13.55;11.80;;;;;;;;;;5049644;28;20211;-65
2023/04/16 00:03:30;;;;;;;15.02;13.45;;;;;;;;;;5049248;28;20209;-65
2023/04/16 00:05:59;;;;;;;14.25;12.85;;;;;;;;;;5049838;28;20647;-65
2023/04/16 00:08:27;;;;;;;14.25;12.75;;;;;;;;;;5049137;28;20205;-65
2023/04/16 00:10:55;;;;;;;13.38;11.88;;;;;;;;;;5052486;28;20242;-65
2023/04/16 00:13:25;;;;;;;15.07;13.48;;;;;;;;;;5053698;28;20224;-65
2023/04/16 00:15:53;;;;;;;15.45;12.30;;;;;;;;;;5054101;28;20671;-65
2023/04/16 00:18:23;;;;;;;13.80;12.43;;;;;;;;;;5067953;28;20216;-66
2023/04/16 00:20:52;;;;;;;14.02;12.57;;;;;;;;;;5074311;28;20742;-64
2023/04/16 00:23:20;;;;;;;12.60;11.25;;;;;;;;;;5074447;28;20222;-66
2023/04/16 00:25:49;;;;;;;13.70;11.50;;;;;;;;;;5065790;28;20192;-64
2023/04/16 00:28:17;;;;;;;12.48;11.18;;;;;;;;;;5054288;28;20646;-64
2023/04/16 00:30:45;;;;;;;14.45;12.80;;;;;;;;;;5064481;28;20657;-64
2023/04/16 00:33:14;;;;;;;14.70;13.07;;;;;;;;;;5073644;28;20226;-64
2023/04/16 00:35:45;;;;;;;14.95;12.77;;;;;;;;;;5073497;28;20632;-65
2023/04/16 00:38:14;;;;;;;13.40;12.10;;;;;;;;;;5072369;28;20195;-64
2023/04/16 00:40:42;;;;;;;15.23;13.57;;;;;;;;;;5073759;28;20207;-65
2023/04/16 00:43:10;;;;;;;14.30;12.80;;;;;;;;;;5061067;28;20201;-65
2023/04/16 00:45:39;;;;;;;15.23;13.38;;;;;;;;;;5053640;28;20205;-64
2023/04/16 00:48:07;;;;;;;15.77;13.35;;;;;;;;;;5052191;28;20204;-64
2023/04/16 00:50:36;;;;;;;16.10;14.40;;;;;;;;;;5053780;28;20204;-64
2023/04/16 00:53:06;;;;;;;15.55;13.50;;;;;;;;;;5053578;28;20223;-64
2023/04/16 00:55:34;;;;;;;16.73;13.32;;;;;;;;;;5052388;28;20185;-65
2023/04/16 00:58:02;;;;;;;18.42;14.15;;;;;;;;;;5053078;28;20692;-65
2023/04/16 01:00:30;;;;;;;18.73;15.20;;;;;;;;;;5052561;28;20205;-64
2023/04/16 01:02:59;;;;;;;19.40;15.43;;;;;;;;;;5051689;28;20201;-65
2023/04/16 01:05:28;;;;;;;18.30;15.10;;;;;;;;;;5052647;28;20238;-65
2023/04/16 01:07:59;;;;;;;17.17;14.50;;;;;;;;;;5052620;28;20208;-65
2023/04/16 01:10:29;;;;;;;17.63;14.32;;;;;;;;;;5053253;28;20592;-65
2023/04/16 01:12:58;;;;;;;15.05;13.40;;;;;;;;;;5052702;28;20591;-64
2023/04/16 01:15:26;;;;;;;15.30;13.60;;;;;;;;;;5053334;28;20535;-64
2023/04/16 01:17:54;;;;;;;16.08;13.73;;;;;;;;;;5052337;28;20203;-65
2023/04/16 01:20:22;;;;;;;15.32;13.40;;;;;;;;;;5054361;28;20281;-65
2023/04/16 01:22:52;;;;;;;14.18;12.07;;;;;;;;;;5059685;28;20200;-65
2023/04/16 01:25:20;;;;;;;13.57;12.10;;;;;;;;;;5053061;28;20261;-64
2023/04/16 01:27:49;;;;;;;13.73;12.27;;;;;;;;;;5060236;28;20207;-65
2023/04/16 01:30:18;;;;;;;16.10;13.80;;;;;;;;;;5053052;28;20210;-64
2023/04/16 01:33:00;;;;;;;14.27;11.88;;;;;;;;;;5051215;28;20213;-65
2023/04/16 01:35:28;;;;;;;17.00;13.93;;;;;;;;;;5063383;28;20208;-65
2023/04/16 01:37:58;;;;;;;14.48;12.80;;;;;;;;;;5069508;28;20200;-65
2023/04/16 01:40:26;;;;;;;14.57;13.02;;;;;;;;;;5070306;28;20200;-65
2023/04/16 01:42:55;;;;;;;15.30;13.70;;;;;;;;;;5068515;28;20192;-65
2023/04/16 01:45:23;;;;;;;16.52;14.15;;;;;;;;;;5070380;28;20268;-65
2023/04/16 01:47:51;;;;;;;14.82;13.23;;;;;;;;;;5061573;28;20211;-65
2023/04/16 01:50:20;;;;;;;16.83;14.05;;;;;;;;;;5051321;28;20210;-65
2023/04/16 01:52:48;;;;;;;15.95;14.25;;;;;;;;;;5052001;28;20609;-65
2023/04/16 01:55:18;;;;;;;15.15;12.68;;;;;;;;;;5053740;28;20197;-65
2023/04/16 01:57:46;;;;;;;14.27;12.70;;;;;;;;;;5059143;28;20265;-65
2023/04/16 02:00:15;;;;;;;17.55;13.88;;;;;;;;;;5051025;28;20652;-66
2023/04/16 02:02:47;;;;;;;14.05;12.48;;;;;;;;;;5051050;28;20670;-65
2023/04/16 02:05:23;;;;;;;15.43;13.60;;;;;;;;;;5050131;28;20673;-65
2023/04/16 02:07:51;;;;;;;17.83;14.88;;;;;;;;;;5062401;28;20214;-65
2023/04/16 02:10:20;;;;;;;14.70;12.90;;;;;;;;;;5070380;28;20224;-65
2023/04/16 02:12:49;;;;;;;14.85;12.70;;;;;;;;;;5064893;28;20197;-65
2023/04/16 02:15:18;;;;;;;14.50;12.75;;;;;;;;;;5051276;28;20204;-65
2023/04/16 02:17:47;;;;;;;18.00;13.05;;;;;;;;;;5059970;28;20210;-65
2023/04/16 02:20:16;;;;;;;14.23;12.77;;;;;;;;;;5070497;28;20276;-66
2023/04/16 02:22:57;;;;;;;12.90;10.68;;;;;;;;;;5056046;28;20193;-65
2023/04/16 02:25:27;;;;;;;12.80;11.40;;;;;;;;;;5051902;28;20659;-65
2023/04/16 02:27:57;;;;;;;12.75;11.10;;;;;;;;;;5055790;28;20189;-65
2023/04/16 02:30:40;;;;;;;13.18;10.68;;;;;;;;;;5063066;28;20187;-65
2023/04/16 02:33:09;;;;;;;12.45;11.10;;;;;;;;;;5070260;28;20208;-65
2023/04/16 02:35:40;;;;;;;10.98;9.85;;;;;;;;;;5050393;28;20188;-65
2023/04/16 02:38:09;;;;;;;16.85;12.73;;;;;;;;;;5050089;28;20211;-65
2023/04/16 02:40:39;;;;;;;12.48;10.88;;;;;;;;;;5050502;28;20205;-65
2023/04/16 02:43:07;;;;;;;14.07;11.85;;;;;;;;;;5051347;28;20211;-65
2023/04/16 02:45:35;;;;;;;10.75;9.65;;;;;;;;;;5051683;28;20204;-65
2023/04/16 02:48:06;;;;;;;13.48;11.43;;;;;;;;;;5070817;28;20571;-65
2023/04/16 02:50:34;;;;;;;11.88;10.27;;;;;;;;;;5053832;28;20188;-65
2023/04/16 02:53:03;;;;;;;11.60;9.90;;;;;;;;;;5071268;28;20550;-65
2023/04/16 02:55:31;;;;;;;13.07;10.98;;;;;;;;;;5071325;28;20213;-65
2023/04/16 02:58:00;;;;;;;11.43;10.15;;;;;;;;;;5053360;28;20204;-66
2023/04/16 03:00:29;;;;;;;11.75;9.77;;;;;;;;;;5054637;28;20201;-65
2023/04/16 03:02:57;;;;;;;11.40;8.63;;;;;;;;;;5068853;28;20204;-65
2023/04/16 03:05:25;;;;;;;10.65;9.40;;;;;;;;;;5069234;28;20196;-65
2023/04/16 03:07:55;;;;;;;14.73;10.07;;;;;;;;;;5069877;28;20203;-65
2023/04/16 03:10:23;;;;;;;12.60;8.82;;;;;;;;;;5070549;28;20231;-65
2023/04/16 03:12:52;;;;;;;11.82;9.60;;;;;;;;;;5070014;28;20210;-67
2023/04/16 03:15:21;;;;;;;12.88;9.93;;;;;;;;;;5071147;28;20226;-65
2023/04/16 03:17:49;;;;;;;12.93;9.40;;;;;;;;;;5071127;28;20204;-65
2023/04/16 03:20:18;;;;;;;12.60;9.70;;;;;;;;;;5071045;28;20285;-65
2023/04/16 03:22:46;;;;;;;12.10;9.70;;;;;;;;;;5063348;28;20201;-65
2023/04/16 03:25:14;;;;;;;12.07;10.82;;;;;;;;;;5051150;28;20207;-65
2023/04/16 03:27:42;;;;;;;11.60;9.85;;;;;;;;;;5049978;28;20212;-65
2023/04/16 03:30:12;;;;;;;11.10;9.73;;;;;;;;;;5050829;28;20208;-65
2023/04/16 03:32:42;;;;;;;13.02;10.15;;;;;;;;;;5050171;28;20257;-65
2023/04/16 03:35:11;;;;;;;14.05;10.50;;;;;;;;;;5049886;28;20205;-65
2023/04/16 03:37:40;;;;;;;11.35;9.02;;;;;;;;;;5059599;28;20656;-65
2023/04/16 03:40:09;;;;;;;12.52;10.25;;;;;;;;;;5049700;28;20216;-66
2023/04/16 03:42:37;;;;;;;11.35;10.15;;;;;;;;;;5049181;28;20211;-65
2023/04/16 03:45:08;;;;;;;11.80;9.95;;;;;;;;;;5052058;28;20200;-65
2023/04/16 03:47:36;;;;;;;11.82;10.07;;;;;;;;;;5061791;28;20220;-65
2023/04/16 03:50:07;;;;;;;12.25;10.38;;;;;;;;;;5053688;28;20209;-65
2023/04/16 03:52:35;;;;;;;13.93;10.00;;;;;;;;;;5062010;28;20564;-65
2023/04/16 03:55:03;;;;;;;15.93;10.65;;;;;;;;;;5074372;28;20232;-65
2023/04/16 03:57:33;;;;;;;13.13;10.65;;;;;;;;;;5072563;28;20582;-65
2023/04/16 04:00:13;;;;;;;11.88;9.52;;;;;;;;;;5073720;28;20211;-66
2023/04/16 04:02:56;;;;;;;12.98;10.00;;;;;;;;;;5072874;28;20184;-65
2023/04/16 04:05:26;;;;;;;12.63;10.13;;;;;;;;;;5074965;28;20203;-65
2023/04/16 04:07:54;;;;;;;14.00;10.43;;;;;;;;;;5067319;28;20743;-65
2023/04/16 04:10:23;;;;;;;14.15;10.82;;;;;;;;;;5053197;28;20262;-65
2023/04/16 04:12:51;;;;;;;11.98;9.93;;;;;;;;;;5045323;28;20206;-65
2023/04/16 04:15:19;;;;;;;14.35;11.20;;;;;;;;;;5074983;28;20216;-65
2023/04/16 04:17:48;;;;;;;12.95;10.52;;;;;;;;;;5072800;28;20216;-65
2023/04/16 04:20:16;;;;;;;13.50;10.45;;;;;;;;;;5072453;28;20224;-65
2023/04/16 04:22:48;;;;;;;13.68;10.63;;;;;;;;;;5072540;28;20677;-65
2023/04/16 04:25:17;;;;;;;12.40;10.35;;;;;;;;;;5062823;28;20626;-65
2023/04/16 04:27:45;;;;;;;13.00;11.20;;;;;;;;;;5053394;28;20205;-65
2023/04/16 04:30:13;;;;;;;14.98;10.98;;;;;;;;;;5052787;28;20200;-65
2023/04/16 04:32:42;;;;;;;11.85;10.60;;;;;;;;;;5035692;28;20213;-65
2023/04/16 04:35:11;;;;;;;14.30;10.98;;;;;;;;;;5054081;28;20216;-65
2023/04/16 04:37:39;;;;;;;14.45;11.82;;;;;;;;;;5053986;28;20228;-64
2023/04/16 04:40:18;;;;;;;12.38;11.02;;;;;;;;;;5052911;28;20541;-65
2023/04/16 04:42:46;;;;;;;16.40;12.05;;;;;;;;;;5072115;28;20199;-65
2023/04/16 04:45:15;;;;;;;11.80;10.30;;;;;;;;;;5063537;28;20563;-66
2023/04/16 04:47:43;;;;;;;13.75;10.65;;;;;;;;;;5068290;28;20208;-65
2023/04/16 04:50:12;;;;;;;14.23;10.77;;;;;;;;;;5070611;28;20569;-65
2023/04/16 04:52:40;;;;;;;15.18;11.10;;;;;;;;;;5051889;28;20231;-65
2023/04/16 04:55:09;;;;;;;17.55;11.43;;;;;;;;;;5051343;28;20596;-65
2023/04/16 04:57:39;;;;;;;14.90;11.23;;;;;;;;;;5052826;28;20671;-64
2023/04/16 05:00:08;;;;;;;15.13;10.98;;;;;;;;;;5056176;28;20195;-65
2023/04/16 05:02:43;;;;;;;13.00;10.38;;;;;;;;;;5065080;28;20195;-65
2023/04/16 05:05:12;;;;;;;15.68;11.45;;;;;;;;;;5059239;28;20196;-65
2023/04/16 05:07:40;;;;;;;12.88;11.45;;;;;;;;;;5073060;28;20208;-65
2023/04/16 05:10:09;;;;;;;14.13;10.98;;;;;;;;;;5073158;28;20236;-65
2023/04/16 05:12:39;;;;;;;14.70;11.48;;;;;;;;;;5061692;28;20196;-65
2023/04/16 05:15:07;;;;;;;13.85;10.82;;;;;;;;;;5061729;28;20578;-65
2023/04/16 05:17:35;;;;;;;15.18;11.77;;;;;;;;;;5062616;28;20200;-65
2023/04/16 05:20:04;;;;;;;17.02;11.52;;;;;;;;;;5061389;28;20225;-65
2023/04/16 05:22:32;;;;;;;16.20;11.50;;;;;;;;;;5059983;28;20674;-65
2023/04/16 05:25:00;;;;;;;13.63;11.10;;;;;;;;;;5051647;28;20199;-65
2023/04/16 05:27:28;;;;;;;12.75;10.50;;;;;;;;;;5051555;28;20266;-65
2023/04/16 05:29:58;;;;;;;12.20;10.70;;;;;;;;;;5058115;28;20212;-65
2023/04/16 05:32:26;;;;;;;12.52;9.82;;;;;;;;;;5063090;28;20193;-65
2023/04/16 05:34:54;;;;;;;16.88;12.50;;;;;;;;;;5052781;28;20220;-65
2023/04/16 05:37:23;;;;;;;15.30;10.75;;;;;;;;;;5053342;28;20201;-66
2023/04/16 05:39:51;;;;;;;13.80;10.35;;;;;;;;;;5052937;28;20215;-65
2023/04/16 05:42:19;;;;;;;13.68;9.32;;;;;;;;;;5059135;28;20249;-65
2023/04/16 05:44:47;;;;;;;23.15;10.70;;;;;;;;;;5071154;28;20208;-65
2023/04/16 05:47:17;;;;;;;11.40;9.60;;;;;;;;;;5052909;28;20226;-65
2023/04/16 05:49:45;;;;;;;11.32;8.82;;;;;;;;;;5071272;28;20208;-65
2023/04/16 05:52:13;;;;;;;10.85;9.07;;;;;;;;;;5065657;28;20214;-65
2023/04/16 05:54:42;;;;;;;11.30;9.88;;;;;;;;;;5066402;28;20221;-66
2023/04/16 05:57:10;;;;;;;11.30;9.25;;;;;;;;;;5063702;28;20674;-65
2023/04/16 05:59:38;;;;;;;12.48;10.23;;;;;;;;;;5070484;28;20188;-65
2023/04/16 06:02:07;;;;;;;10.70;8.93;;;;;;;;;;5071170;28;20649;-65
2023/04/16 06:04:36;;;;;;;11.52;7.65;;;;;;;;;;5052051;28;20200;-65
2023/04/16 06:07:05;;;;;;;13.02;8.88;;;;;;;;;;5051503;28;20212;-65
2023/04/16 06:09:33;;;;;;;11.52;9.85;;;;;;;;;;5052359;28;20208;-65
2023/04/16 06:12:01;;;;;;;12.30;8.45;;;;;;;;;;5051816;28;20216;-65
2023/04/16 06:14:29;;;;;;;13.20;8.80;;;;;;;;;;5060235;28;20200;-65
2023/04/16 06:16:58;;;;;;;8.60;7.30;;;;;;;;;;5071313;28;20222;-65
2023/04/16 06:19:26;;;;;;;12.18;9.07;;;;;;;;;;5069371;28;20268;-65
2023/04/16 06:21:56;;;;;;;9.90;7.85;;;;;;;;;;5067320;28;20616;-65
2023/04/16 06:24:24;;;;;;;11.85;9.05;;;;;;;;;;5067762;28;20575;-65
2023/04/16 06:26:53;;;;;;;10.65;8.45;;;;;;;;;;5071105;28;20200;-65
2023/04/16 06:29:21;;;;;;;10.90;8.43;;;;;;;;;;5065282;28;20218;-65
2023/04/16 06:31:49;;;;;;;13.02;9.27;;;;;;;;;;5071270;28;20268;-65
2023/04/16 06:34:18;;;;;;;11.30;8.55;;;;;;;;;;5067163;28;20553;-65
2023/04/16 06:36:46;;;;;;;8.68;7.78;;;;;;;;;;5068449;28;20223;-65
2023/04/16 06:39:15;;;;;;;10.73;7.85;;;;;;;;;;5066681;28;20570;-65
2023/04/16 06:41:44;;;;;;;10.38;8.60;;;;;;;;;;5055154;28;20249;-65
2023/04/16 06:44:12;;;;;;;17.25;8.07;;;;;;;;;;5064574;28;20294;-65
2023/04/16 06:46:40;;;;;;;10.50;8.02;;;;;;;;;;5064730;28;20192;-65
2023/04/16 06:49:09;;;;;;;9.90;8.07;;;;;;;;;;5071202;28;20206;-65
2023/04/16 06:51:37;;;;;;;10.00;7.43;;;;;;;;;;5056953;28;20200;-65
2023/04/16 06:54:05;;;;;;;10.45;8.13;;;;;;;;;;5061895;28;20558;-70
2023/04/16 06:56:36;;;;;;;8.52;7.30;;;;;;;;;;5057825;28;20219;-70
2023/04/16 06:59:04;;;;;;;12.05;7.80;;;;;;;;;;5070640;28;20680;-70
2023/04/16 07:01:32;;;;;;;9.77;7.78;;;;;;;;;;5055258;28;20204;-70
2023/04/16 07:04:00;;;;;;;8.75;7.32;;;;;;;;;;5062761;28;20208;-70
2023/04/16 07:06:29;;;;;;;13.63;8.68;;;;;;;;;;5055930;28;20201;-71
2023/04/16 07:08:57;;;;;;;9.73;7.72;;;;;;;;;;5060243;28;20494;-70
2023/04/16 07:11:26;;;;;;;9.30;7.65;;;;;;;;;;5063040;28;20295;-69
2023/04/16 07:13:56;;;;;;;9.63;7.40;;;;;;;;;;5060995;28;20536;-71
2023/04/16 07:16:24;;;;;;;10.80;8.60;;;;;;;;;;5055879;28;20213;-70
2023/04/16 07:18:52;;;;;;;9.38;7.15;;;;;;;;;;5059295;28;20666;-70
2023/04/16 07:21:23;;;;;;;10.75;7.70;;;;;;;;;;5062108;28;20222;-70
2023/04/16 07:23:51;;;;;;;8.80;7.97;;;;;;;;;;5070789;28;20214;-71
2023/04/16 07:26:19;;;;;;;9.13;7.57;;;;;;;;;;5057915;28;20196;-71
2023/04/16 07:28:47;;;;;;;8.35;7.50;;;;;;;;;;5066013;28;20635;-70
2023/04/16 07:31:17;;;;;;;9.88;7.93;;;;;;;;;;5069218;28;20195;-71
2023/04/16 07:33:45;;;;;;;9.73;7.85;;;;;;;;;;5057130;28;20208;-69
2023/04/16 07:36:14;;;;;;;9.27;7.45;;;;;;;;;;5056198;28;20243;-70
2023/04/16 07:38:42;;;;;;;10.02;8.00;;;;;;;;;;5061625;28;20658;-70
2023/04/16 07:41:10;;;;;;;8.55;7.65;;;;;;;;;;5051136;28;20209;-70
2023/04/16 07:43:38;;;;;;;9.63;8.30;;;;;;;;;;5059224;28;20205;-70
2023/04/16 07:46:06;;;;;;;9.30;7.63;;;;;;;;;;5060513;28;20199;-71
2023/04/16 07:48:36;;;;;;;9.80;8.27;;;;;;;;;;5053846;28;20267;-70
2023/04/16 07:51:04;;;;;;;9.25;7.65;;;;;;;;;;5056996;28;20209;-71
2023/04/16 07:53:32;;;;;;;8.55;6.80;;;;;;;;;;5067563;28;20204;-71
2023/04/16 07:56:00;;;;;;;9.10;8.20;;;;;;;;;;5058631;28;20208;-71
2023/04/16 07:58:29;;;;;;;10.63;7.65;;;;;;;;;;5060896;28;20204;-69
2023/04/16 08:00:57;;;;;;;10.23;7.50;;;;;;;;;;5057556;28;20256;-68
2023/04/16 08:03:25;;;;;;;11.68;8.48;;;;;;;;;;5061255;28;20562;-69
2023/04/16 08:05:55;;;;;;;9.40;7.95;;;;;;;;;;5051395;28;20216;-69
2023/04/16 08:08:23;;;;;;;10.18;7.63;;;;;;;;;;5053641;28;20253;-72
2023/04/16 08:10:54;;;;;;;14.48;9.20;;;;;;;;;;5070064;28;20234;-64
2023/04/16 08:13:23;;;;;;;11.30;8.82;;;;;;;;;;5069266;28;20198;-64
2023/04/16 08:15:51;;;;;;;11.32;9.38;;;;;;;;;;5071498;28;20200;-63
2023/04/16 08:18:19;;;;;;;10.15;8.82;;;;;;;;;;5063899;28;20200;-62
2023/04/16 08:20:48;;;;;;;12.88;8.07;;;;;;;;;;5061675;28;20242;-63
2023/04/16 08:23:17;;;;;;;24.08;15.35;;;;;;;;;;5055951;28;20534;-62
2023/04/16 08:25:45;;;;;;;19.63;14.38;;;;;;;;;;5072084;28;20210;-63
2023/04/16 08:28:14;;;;;;;35.50;21.65;;;;;;;;;;5061647;28;20204;-63
2023/04/16 08:30:44;;;;;;;24.75;16.75;;;;;;;;;;5051444;28;20361;-63
2023/04/16 08:33:13;;;;;;;16.77;10.85;;;;;;;;;;5057943;28;20200;-63
2023/04/16 08:35:41;;;;;;;14.52;10.52;;;;;;;;;;5057312;28;20219;-64
2023/04/16 08:38:10;;;;;;;11.38;9.70;;;;;;;;;;5054939;28;20216;-62
2023/04/16 08:40:40;;;;;;;15.18;10.05;;;;;;;;;;5057468;28;20481;-62
2023/04/16 08:43:12;;;;;;;12.10;9.05;;;;;;;;;;5060316;28;20635;-62
2023/04/16 08:45:41;;;;;;;12.25;10.02;;;;;;;;;;5076496;28;20210;-62
2023/04/16 08:48:12;;;;;;;10.70;8.70;;;;;;;;;;5073953;28;20199;-63
2023/04/16 08:50:41;;;;;;;13.10;9.77;;;;;;;;;;5061941;28;20197;-62
2023/04/16 08:53:11;;;;;;;13.45;8.18;;;;;;;;;;5064905;28;20197;-62
2023/04/16 08:55:41;;;;;;;11.75;7.63;;;;;;;;;;5053627;28;20189;-63
2023/04/16 08:58:14;;;;;;;12.57;8.95;;;;;;;;;;5070715;28;20216;-62
2023/04/16 09:00:42;;;;;;;13.70;9.70;;;;;;;;;;5073481;28;20202;-63
2023/04/16 09:03:10;;;;;;;12.13;8.27;;;;;;;;;;5071119;28;20615;-62
2023/04/16 09:05:39;;;;;;;11.02;9.43;;;;;;;;;;5069072;28;20201;-63
2023/04/16 09:08:07;;;;;;;9.77;8.77;;;;;;;;;;5073594;28;20195;-64
2023/04/16 09:10:36;;;;;;;13.85;9.52;;;;;;;;;;5062787;28;20604;-64
2023/04/16 09:13:08;;;;;;;10.35;9.10;;;;;;;;;;5077314;28;20275;-63
2023/04/16 09:15:36;;;;;;;14.70;9.13;;;;;;;;;;5070017;28;20243;-63
2023/04/16 09:18:05;;;;;;;11.15;9.02;;;;;;;;;;5075315;28;20223;-63
2023/04/16 09:20:33;;;;;;;15.13;9.95;;;;;;;;;;5089432;28;20251;-63
2023/04/16 09:23:01;;;;;;;11.32;9.02;;;;;;;;;;5086871;28;20228;-62
2023/04/16 09:25:33;;;;;;;8.27;7.50;;;;;;;;;;5081495;28;20219;-61
2023/04/16 09:28:02;;;;;;;10.30;8.45;;;;;;;;;;5087835;28;20271;-65
2023/04/16 09:30:33;;;;;;;12.10;8.35;;;;;;;;;;5084123;28;20563;-62
2023/04/16 09:33:13;;;;;;;8.68;7.82;;;;;;;;;;5081851;28;20248;-63
2023/04/16 09:35:46;;;;;;;9.55;8.55;;;;;;;;;;5067983;28;20220;-62
2023/04/16 09:38:14;;;;;;;9.80;8.52;;;;;;;;;;5078450;28;20311;-64
2023/04/16 09:40:42;;;;;;;30.05;23.70;;;;;;;;;;5069176;28;20228;-64
2023/04/16 09:43:11;;;;;;;14.63;9.43;;;;;;;;;;5069043;28;20240;-63
2023/04/16 09:45:50;;;;;;;11.00;9.90;;;;;;;;;;5069165;28;20231;-62
2023/04/16 09:48:29;;;;;;;9.57;8.50;;;;;;;;;;5081508;28;20192;-61
2023/04/16 09:50:58;;;;;;;8.55;7.20;;;;;;;;;;5087033;28;20231;-62
2023/04/16 09:53:26;;;;;;;10.90;9.57;;;;;;;;;;5074113;28;20256;-62
2023/04/16 09:55:56;;;;;;;15.18;11.95;;;;;;;;;;5078885;28;20232;-63
2023/04/16 09:58:25;;;;;;;10.02;8.80;;;;;;;;;;5067694;28;20285;-62
2023/04/16 10:00:57;;;;;;;12.00;8.60;;;;;;;;;;5066608;28;20288;-62
2023/04/16 10:03:31;;;;;;;10.00;8.57;;;;;;;;;;5072553;28;20669;-61
2023/04/16 10:06:01;;;;;;;11.00;9.15;;;;;;;;;;5076152;28;20220;-62
2023/04/16 10:08:29;;;;;;;11.90;7.63;;;;;;;;;;5077251;28;20252;-62
2023/04/16 10:10:57;;;;;;;11.57;8.88;;;;;;;;;;5076094;28;20653;-64
2023/04/16 10:13:26;;;;;;;9.75;8.73;;;;;;;;;;5077213;28;20220;-63
2023/04/16 10:15:57;;;;;;;9.32;7.40;;;;;;;;;;5086647;28;20238;-63
2023/04/16 10:18:26;;;;;;;9.40;7.85;;;;;;;;;;5083225;28;20256;-62
2023/04/16 10:20:54;;;;;;;9.07;7.95;;;;;;;;;;5086068;28;20255;-63
2023/04/16 10:23:23;;;;;;;9.25;8.02;;;;;;;;;;5076409;28;20643;-65
2023/04/16 10:25:51;;;;;;;7.80;7.10;;;;;;;;;;5089345;28;20227;-64
2023/04/16 10:28:19;;;;;;;7.30;6.60;;;;;;;;;;5081882;28;20230;-62
2023/04/16 10:30:52;;;;;;;8.32;7.25;;;;;;;;;;5078574;28;20227;-62
2023/04/16 10:33:23;;;;;;;24.92;14.85;;;;;;;;;;5076379;28;20242;-63
2023/04/16 10:35:51;;;;;;;9.18;7.07;;;;;;;;;;5071537;28;20243;-62
2023/04/16 10:38:23;;;;;;;12.70;10.27;;;;;;;;;;5068968;28;20263;-62
2023/04/16 10:40:51;;;;;;;9.95;8.65;;;;;;;;;;5069161;28;20241;-62
2023/04/16 10:43:19;;;;;;;9.88;8.45;;;;;;;;;;5069136;28;20629;-64
2023/04/16 10:45:48;;;;;;;23.80;16.10;;;;;;;;;;5068863;28;20196;-62
2023/04/16 10:48:19;;;;;;;14.95;12.60;;;;;;;;;;5079646;28;20247;-62
2023/04/16 10:50:56;;;;;;;13.40;7.78;;;;;;;;;;5080495;28;20219;-64
2023/04/16 10:53:25;;;;;;;8.95;7.72;;;;;;;;;;5083356;28;20191;-63
2023/04/16 10:55:57;;;;;;;13.73;12.32;;;;;;;;;;5078312;28;20223;-63
2023/04/16 10:58:29;;;;;;;11.07;7.88;;;;;;;;;;5089165;28;20247;-63
2023/04/16 11:01:00;;;;;;;27.17;22.30;;;;;;;;;;5080295;28;20224;-64
2023/04/16 11:03:31;;;;;;;18.75;16.83;;;;;;;;;;5070627;28;20507;-63
2023/04/16 11:06:12;;;;;;;25.15;21.08;;;;;;;;;;5083374;28;20223;-62
2023/04/16 11:08:41;;;;;;;9.32;7.82;;;;;;;;;;5087798;28;20212;-63
2023/04/16 11:11:09;;;;;;;11.45;9.88;;;;;;;;;;5076953;28;20255;-63
2023/04/16 11:13:37;;;;;;;10.15;7.75;;;;;;;;;;5082753;28;20223;-62
2023/04/16 11:16:07;;;;;;;10.40;9.40;;;;;;;;;;5081627;28;20192;-63
2023/04/16 11:18:35;;;;;;;14.25;11.90;;;;;;;;;;5072613;28;20298;-64
2023/04/16 11:21:08;;;;;;;35.03;22.77;;;;;;;;;;5073109;28;20284;-62
2023/04/16 11:23:48;;;;;;;22.95;16.70;;;;;;;;;;5073451;28;20236;-62
2023/04/16 11:26:26;;;;;;;14.80;11.43;;;;;;;;;;5077930;28;20228;-62
2023/04/16 11:28:55;;;;;;;14.07;12.63;;;;;;;;;;5085342;28;20215;-62
2023/04/16 11:31:25;;;;;;;9.43;8.43;;;;;;;;;;5074889;28;20227;-62
2023/04/16 11:33:56;;;;;;;7.22;5.45;;;;;;;;;;5083496;28;20242;-65
2023/04/16 11:36:25;;;;;;;7.75;7.00;;;;;;;;;;5076197;28;20236;-64
2023/04/16 11:39:02;;;;;;;5.50;5.00;;;;;;;;;;5088100;28;20262;-63
2023/04/16 11:41:30;;;;;;;6.47;5.90;;;;;;;;;;5083884;28;20931;-64
2023/04/16 11:43:58;;;;;;;7.18;6.47;;;;;;;;;;5068586;28;20232;-62
2023/04/16 11:46:38;;;;;;;10.27;8.50;;;;;;;;;;5084881;28;20228;-62
2023/04/16 11:49:06;;;;;;;14.60;11.38;;;;;;;;;;5078158;28;20228;-62
2023/04/16 11:51:39;;;;;;;21.80;16.67;;;;;;;;;;5073819;28;20239;-62
2023/04/16 11:54:09;;;;;;;35.33;28.58;;;;;;;;;;5081939;28;20215;-63
2023/04/16 11:56:38;;;;;;;34.42;25.25;;;;;;;;;;5076295;28;20200;-63
2023/04/16 11:59:09;;;;;;;16.45;12.88;;;;;;;;;;5087961;28;20222;-63
2023/04/16 12:01:38;;;;;;;9.02;7.30;;;;;;;;;;5087029;28;20258;-62
2023/04/16 12:04:06;;;;;;;5.25;4.85;;;;;;;;;;5072618;28;20236;-62
2023/04/16 12:06:34;;;;;;;7.10;5.75;;;;;;;;;;5089374;28;20650;-62
2023/04/16 12:09:22;;;;;;;5.80;5.30;;;;;;;;;;5091387;28;20657;-65
2023/04/16 12:11:52;;;;;;;6.40;5.80;;;;;;;;;;5091119;28;20238;-62
2023/04/16 12:14:20;;;;;;;6.65;6.03;;;;;;;;;;5074850;28;20200;-65
2023/04/16 12:16:48;;;;;;;7.07;6.38;;;;;;;;;;5078531;28;20207;-64
2023/04/16 12:19:16;;;;;;;7.90;7.10;;;;;;;;;;5077290;28;20243;-62
2023/04/16 12:21:45;;;;;;;7.80;7.10;;;;;;;;;;5090277;28;20196;-63
2023/04/16 12:24:14;;;;;;;8.00;7.15;;;;;;;;;;5077176;28;20226;-65
2023/04/16 12:26:43;;;;;;;6.65;5.95;;;;;;;;;;5072465;28;20216;-64
2023/04/16 12:29:19;;;;;;;8.07;7.20;;;;;;;;;;5071017;28;20700;-64
2023/04/16 12:31:48;;;;;;;8.18;7.38;;;;;;;;;;5071266;28;20193;-63
2023/04/16 12:34:16;;;;;;;9.40;7.38;;;;;;;;;;5071689;28;20215;-63
2023/04/16 12:36:44;;;;;;;11.65;7.72;;;;;;;;;;5071887;28;20200;-63
2023/04/16 12:39:13;;;;;;;7.25;6.55;;;;;;;;;;5070526;28;20216;-64
2023/04/16 12:41:41;;;;;;;6.53;5.80;;;;;;;;;;5075082;28;20238;-62
2023/04/16 12:44:10;;;;;;;7.00;6.30;;;;;;;;;;5079618;28;20200;-62
2023/04/16 12:46:41;;;;;;;7.88;7.07;;;;;;;;;;5080144;28;20199;-62
2023/04/16 12:49:10;;;;;;;6.80;6.20;;;;;;;;;;5088968;28;20282;-65
2023/04/16 12:51:39;;;;;;;51.03;39.40;;;;;;;;;;5072258;28;20207;-62
2023/04/16 12:54:08;;;;;;;11.57;10.43;;;;;;;;;;5070706;28;20203;-64
2023/04/16 12:56:36;;;;;;;11.10;9.95;;;;;;;;;;5071701;28;20183;-64
2023/04/16 12:59:04;;;;;;;7.30;6.60;;;;;;;;;;5071964;28;20251;-65
2023/04/16 13:01:34;;;;;;;7.75;6.50;;;;;;;;;;5071497;28;20237;-62
2023/04/16 13:04:04;;;;;;;8.98;8.07;;;;;;;;;;5070954;28;20213;-63
2023/04/16 13:06:32;;;;;;;8.38;7.43;;;;;;;;;;5072686;28;20262;-64
2023/04/16 13:09:01;;;;;;;7.70;6.90;;;;;;;;;;5083064;28;20220;-63
2023/04/16 13:11:29;;;;;;;10.90;9.70;;;;;;;;;;5091020;28;20270;-62
2023/04/16 13:13:57;;;;;;;19.73;13.70;;;;;;;;;;5091847;28;20236;-63
2023/04/16 13:16:26;;;;;;;11.30;9.95;;;;;;;;;;5090323;28;20232;-62
2023/04/16 13:18:54;;;;;;;10.48;8.95;;;;;;;;;;5091516;28;20670;-64
2023/04/16 13:21:24;;;;;;;11.25;9.30;;;;;;;;;;5091348;28;20254;-66
2023/04/16 13:23:52;;;;;;;14.75;10.95;;;;;;;;;;5091171;28;20228;-67
2023/04/16 13:26:21;;;;;;;15.32;10.98;;;;;;;;;;5091725;28;20230;-63
2023/04/16 13:28:49;;;;;;;13.68;12.20;;;;;;;;;;5090294;28;20250;-63
2023/04/16 13:31:20;;;;;;;15.15;10.90;;;;;;;;;;5091076;28;20223;-63
2023/04/16 13:33:49;;;;;;;16.40;11.15;;;;;;;;;;5091298;28;20194;-63
2023/04/16 13:36:17;;;;;;;18.65;15.18;;;;;;;;;;5091365;28;20258;-63
2023/04/16 13:38:46;;;;;;;16.45;13.77;;;;;;;;;;5089978;28;20243;-64
2023/04/16 13:41:15;;;;;;;13.60;11.27;;;;;;;;;;5090872;28;20235;-65
2023/04/16 13:43:43;;;;;;;11.80;9.20;;;;;;;;;;5090315;28;20238;-64
2023/04/16 13:46:11;;;;;;;15.20;11.63;;;;;;;;;;5090952;28;20261;-63
2023/04/16 13:48:40;;;;;;;16.95;13.50;;;;;;;;;;5090857;28;20234;-63
2023/04/16 13:51:08;;;;;;;29.75;23.40;;;;;;;;;;5073459;28;20227;-64
2023/04/16 13:53:36;;;;;;;15.63;12.07;;;;;;;;;;5089898;28;20235;-64
2023/04/16 13:56:09;;;;;;;17.60;13.23;;;;;;;;;;5091330;28;20216;-63
2023/04/16 13:58:38;;;;;;;13.57;10.57;;;;;;;;;;5090726;28;20269;-63
2023/04/16 14:01:06;;;;;;;14.02;11.50;;;;;;;;;;5091044;28;20243;-63
2023/04/16 14:03:37;;;;;;;13.57;11.05;;;;;;;;;;5089334;28;20231;-63
2023/04/16 14:06:05;;;;;;;13.55;10.45;;;;;;;;;;5088882;28;20219;-63
2023/04/16 14:08:34;;;;;;;14.95;11.05;;;;;;;;;;5089144;28;20228;-66
2023/04/16 14:11:02;;;;;;;12.82;10.57;;;;;;;;;;5089358;28;20243;-63
2023/04/16 14:13:32;;;;;;;15.93;12.70;;;;;;;;;;5090110;28;20226;-63
2023/04/16 14:16:00;;;;;;;17.98;12.90;;;;;;;;;;5088850;28;20240;-63
2023/04/16 14:18:28;;;;;;;19.70;12.48;;;;;;;;;;5089343;28;20247;-63
2023/04/16 14:20:57;;;;;;;19.50;13.50;;;;;;;;;;5088275;28;20251;-64
2023/04/16 14:23:25;;;;;;;17.48;13.30;;;;;;;;;;5089321;28;20239;-64
2023/04/16 14:25:54;;;;;;;15.15;13.27;;;;;;;;;;5087029;28;20232;-63
2023/04/16 14:28:22;;;;;;;13.95;11.10;;;;;;;;;;5087221;28;20242;-66
2023/04/16 14:30:51;;;;;;;14.40;11.65;;;;;;;;;;5088261;28;20231;-61
2023/04/16 14:33:20;;;;;;;15.35;12.55;;;;;;;;;;5088877;28;20239;-62
2023/04/16 14:35:49;;;;;;;18.17;12.80;;;;;;;;;;5089816;28;20231;-61
2023/04/16 14:38:17;;;;;;;16.05;12.88;;;;;;;;;;5079456;28;20227;-62